createdAt,value
2018-07-22T00:00:10.644Z,6.53
2018-07-22T00:02:39.724Z,6.50
2018-07-22T00:05:08.607Z,6.50
2018-07-22T00:07:37.512Z,7.20
2018-07-22T00:10:08.288Z,8.43
2018-07-22T00:12:38.958Z,7.30
2018-07-22T00:15:07.511Z,7.30
2018-07-22T00:17:36.072Z,7.87
2018-07-22T00:20:05.536Z,7.77
2018-07-22T00:22:34.051Z,7.77
2018-07-22T00:25:02.639Z,7.07
2018-07-22T00:27:31.145Z,6.83
2018-07-22T00:29:59.665Z,7.20
2018-07-22T00:32:28.237Z,8.07
2018-07-22T00:34:58.090Z,7.13
2018-07-22T00:37:26.767Z,7.97
2018-07-22T00:39:55.307Z,7.93
2018-07-22T00:42:25.297Z,7.07
2018-07-22T00:44:53.835Z,7.43
2018-07-22T00:47:22.381Z,8.07
2018-07-22T00:49:50.897Z,8.53
2018-07-22T00:52:19.419Z,7.40
2018-07-22T00:54:47.951Z,7.53
2018-07-22T00:57:16.476Z,9.33
2018-07-22T00:59:44.993Z,8.00
2018-07-22T01:02:13.544Z,7.37
2018-07-22T01:04:42.052Z,6.70
2018-07-22T01:07:11.712Z,7.70
2018-07-22T01:09:40.384Z,7.93
2018-07-22T01:12:08.905Z,7.90
2018-07-22T01:14:37.412Z,8.00
2018-07-22T01:17:07.294Z,7.43
2018-07-22T01:19:35.804Z,7.73
2018-07-22T01:22:04.369Z,7.40
2018-07-22T01:24:32.890Z,8.30
2018-07-22T01:27:01.409Z,7.63
2018-07-22T01:29:29.936Z,7.47
2018-07-22T01:31:58.471Z,8.50
2018-07-22T01:34:27.013Z,8.70
2018-07-22T01:36:55.508Z,8.93
2018-07-22T01:39:24.037Z,8.60
2018-07-22T01:41:54.342Z,8.03
2018-07-22T01:44:22.838Z,8.03
2018-07-22T01:46:51.475Z,9.30
2018-07-22T01:49:19.997Z,9.70
2018-07-22T01:51:48.514Z,7.73
2018-07-22T01:54:17.049Z,7.90
2018-07-22T01:56:45.598Z,8.70
2018-07-22T01:59:14.440Z,8.60
2018-07-22T02:01:43.061Z,9.70
2018-07-22T02:04:11.573Z,9.97
2018-07-22T02:06:40.182Z,10.90
2018-07-22T02:09:10.129Z,9.00
2018-07-22T02:11:38.896Z,10.37
2018-07-22T02:14:07.683Z,8.47
2018-07-22T02:16:36.394Z,9.57
2018-07-22T02:19:05.533Z,9.60
2018-07-22T02:21:34.467Z,10.07
2018-07-22T02:24:03.021Z,9.70
2018-07-22T02:26:32.013Z,9.27
2018-07-22T02:29:00.633Z,8.73
2018-07-22T02:31:30.159Z,8.90
2018-07-22T02:33:58.710Z,8.60
2018-07-22T02:36:27.459Z,8.10
2018-07-22T02:38:56.005Z,9.47
2018-07-22T02:41:25.129Z,8.83
2018-07-22T02:43:53.839Z,9.73
2018-07-22T02:46:22.398Z,9.43
2018-07-22T02:48:50.942Z,9.67
2018-07-22T02:51:19.875Z,10.03
2018-07-22T02:53:49.088Z,9.60
2018-07-22T02:56:17.602Z,9.87
2018-07-22T02:58:46.471Z,10.27
2018-07-22T03:01:15.005Z,10.70
2018-07-22T03:03:43.594Z,8.73
2018-07-22T03:06:12.468Z,10.03
2018-07-22T03:08:41.020Z,10.90
2018-07-22T03:11:09.727Z,11.30
2018-07-22T03:13:38.269Z,11.47
2018-07-22T03:16:07.246Z,9.23
2018-07-22T03:18:35.998Z,9.07
2018-07-22T03:21:04.529Z,9.90
2018-07-22T03:23:33.729Z,9.70
2018-07-22T03:27:31.430Z,12.17
2018-07-22T03:29:59.957Z,11.37
2018-07-22T03:32:28.589Z,10.20
2018-07-22T03:34:57.146Z,10.70
2018-07-22T03:37:25.716Z,12.07
2018-07-22T03:39:54.240Z,11.00
2018-07-22T03:42:22.808Z,11.00
2018-07-22T03:44:51.877Z,11.10
2018-07-22T03:47:20.651Z,9.70
2018-07-22T03:49:49.193Z,11.10
2018-07-22T03:52:17.752Z,10.90
2018-07-22T03:54:47.223Z,11.10
2018-07-22T03:57:15.773Z,15.50
2018-07-22T03:59:44.583Z,13.30
2018-07-22T04:02:13.114Z,12.43
2018-07-22T04:04:41.660Z,12.20
2018-07-22T04:07:10.718Z,13.20
2018-07-22T04:09:39.235Z,13.30
2018-07-22T04:12:08.295Z,14.50
2018-07-22T04:14:36.558Z,14.80
2018-07-22T04:17:05.104Z,14.40
2018-07-22T04:19:34.536Z,13.78
2018-07-22T04:22:03.085Z,14.87
2018-07-22T04:24:31.601Z,13.97
2018-07-22T04:27:00.236Z,15.60
2018-07-22T04:29:29.297Z,16.20
2018-07-22T04:31:57.808Z,16.47
2018-07-22T04:34:26.457Z,14.37
2018-07-22T04:36:55.637Z,14.87
2018-07-22T04:39:24.184Z,15.50
2018-07-22T04:41:52.981Z,15.55
2018-07-22T04:44:21.578Z,16.03
2018-07-22T04:46:50.225Z,14.65
2018-07-22T04:49:18.766Z,15.40
2018-07-22T04:51:47.355Z,14.70
2018-07-22T04:54:15.868Z,16.33
2018-07-22T04:56:44.453Z,16.70
2018-07-22T04:59:13.016Z,16.90
2018-07-22T05:01:42.348Z,15.03
2018-07-22T05:04:10.563Z,13.33
2018-07-22T05:06:39.078Z,12.57
2018-07-22T05:09:09.687Z,12.77
2018-07-22T05:11:38.486Z,10.43
2018-07-22T05:14:07.897Z,10.77
2018-07-22T05:16:36.649Z,14.37
2018-07-22T05:19:05.569Z,11.67
2018-07-22T05:21:34.173Z,12.10
2018-07-22T05:24:02.698Z,12.03
2018-07-22T05:26:31.223Z,11.33
2018-07-22T05:28:59.758Z,11.20
2018-07-22T05:31:28.365Z,10.10
2018-07-22T05:33:56.880Z,10.17
2018-07-22T05:36:25.435Z,10.97
2018-07-22T05:38:54.027Z,10.10
2018-07-22T05:41:22.834Z,9.73
2018-07-22T05:43:51.414Z,9.53
2018-07-22T05:46:19.950Z,9.03
2018-07-22T05:48:49.303Z,9.17
2018-07-22T05:51:17.948Z,10.13
2018-07-22T05:53:46.492Z,8.90
2018-07-22T05:56:15.022Z,9.77
2018-07-22T05:58:43.592Z,9.33
2018-07-22T06:01:12.126Z,8.30
2018-07-22T06:03:40.703Z,8.90
2018-07-22T06:06:09.308Z,8.63
2018-07-22T06:08:37.953Z,7.90
2018-07-22T06:11:06.736Z,9.77
2018-07-22T06:13:35.307Z,10.00
2018-07-22T06:16:03.856Z,8.03
2018-07-22T06:18:32.391Z,8.93
2018-07-22T06:21:01.072Z,10.33
2018-07-22T06:23:29.681Z,9.30
2018-07-22T06:25:58.196Z,9.43
2018-07-22T06:28:26.750Z,10.73
2018-07-22T06:30:55.249Z,10.10
2018-07-22T06:33:23.768Z,9.67
2018-07-22T06:35:52.348Z,10.93
2018-07-22T06:38:20.867Z,12.00
2018-07-22T06:40:49.360Z,12.23
2018-07-22T06:43:17.929Z,11.10
2018-07-22T06:45:46.422Z,12.77
2018-07-22T06:48:14.946Z,12.67
2018-07-22T06:50:43.488Z,12.87
2018-07-22T06:53:12.083Z,11.80
2018-07-22T06:55:40.626Z,13.33
2018-07-22T06:58:09.184Z,11.47
2018-07-22T07:00:37.798Z,12.17
2018-07-22T07:03:06.700Z,12.90
2018-07-22T07:05:35.267Z,11.00
2018-07-22T07:08:04.102Z,11.53
2018-07-22T07:10:32.683Z,10.67
2018-07-22T07:13:01.249Z,9.97
2018-07-22T07:15:29.753Z,10.53
2018-07-22T07:17:58.410Z,10.53
2018-07-22T07:20:27.077Z,10.23
2018-07-22T07:22:55.616Z,10.67
2018-07-22T07:25:24.287Z,11.87
2018-07-22T07:27:52.829Z,8.77
2018-07-22T07:30:21.462Z,11.10
2018-07-22T07:32:49.997Z,9.80
2018-07-22T07:35:18.533Z,10.67
2018-07-22T07:37:47.045Z,9.40
2018-07-22T07:40:15.616Z,9.27
2018-07-22T07:42:44.186Z,10.67
2018-07-22T07:46:41.920Z,10.80
2018-07-22T07:49:11.112Z,9.43
2018-07-22T07:51:39.730Z,8.60
2018-07-22T07:54:08.414Z,8.97
2018-07-22T07:56:36.973Z,9.53
2018-07-22T07:59:05.531Z,9.40
2018-07-22T08:01:33.757Z,8.60
2018-07-22T08:04:02.340Z,8.30
2018-07-22T08:06:30.855Z,8.70
2018-07-22T08:08:59.410Z,9.07
2018-07-22T08:11:28.021Z,7.77
2018-07-22T08:13:56.543Z,8.80
2018-07-22T08:16:25.376Z,8.23
2018-07-22T08:18:56.438Z,9.60
2018-07-22T08:21:22.912Z,10.50
2018-07-22T08:23:51.423Z,8.37
2018-07-22T08:26:20.009Z,9.20
2018-07-22T08:29:28.933Z,9.93
2018-07-22T08:31:59.057Z,8.00
2018-07-22T08:34:27.568Z,9.00
2018-07-22T08:36:56.470Z,7.90
2018-07-22T08:39:27.272Z,8.00
2018-07-22T08:41:56.356Z,8.30
2018-07-22T08:44:24.987Z,7.87
2018-07-22T08:46:53.634Z,9.47
2018-07-22T08:49:22.241Z,7.10
2018-07-22T08:51:50.788Z,7.00
2018-07-22T08:54:20.177Z,7.73
2018-07-22T08:56:48.729Z,7.30
2018-07-22T08:59:17.261Z,6.43
2018-07-22T09:01:45.847Z,6.43
2018-07-22T09:04:14.533Z,7.53
2018-07-22T09:06:43.115Z,5.97
2018-07-22T09:09:12.645Z,5.77
2018-07-22T09:11:41.302Z,6.30
2018-07-22T09:14:10.502Z,6.10
2018-07-22T09:16:39.100Z,7.10
2018-07-22T09:19:07.725Z,5.33
2018-07-22T09:21:36.588Z,5.30
2018-07-22T09:24:05.195Z,5.30
2018-07-22T09:26:33.706Z,5.70
2018-07-22T09:29:02.321Z,4.87
2018-07-22T09:31:30.877Z,4.90
2018-07-22T09:33:59.454Z,4.77
2018-07-22T09:36:28.070Z,4.50
2018-07-22T09:38:56.539Z,3.63
2018-07-22T09:41:25.089Z,5.07
2018-07-22T09:43:53.628Z,4.17
2018-07-22T09:46:22.206Z,4.77
2018-07-22T09:48:50.715Z,4.67
2018-07-22T09:51:19.887Z,4.73
2018-07-22T09:53:48.482Z,4.50
2018-07-22T09:56:17.011Z,4.23
2018-07-22T09:58:45.531Z,5.70
2018-07-22T10:01:14.108Z,5.07
2018-07-22T10:03:42.677Z,6.30
2018-07-22T10:06:11.208Z,4.80
2018-07-22T10:08:40.629Z,4.50
2018-07-22T10:11:09.234Z,4.30
2018-07-22T10:13:38.519Z,4.50
2018-07-22T10:16:07.096Z,5.80
2018-07-22T10:18:35.608Z,4.53
2018-07-22T10:21:04.137Z,4.07
2018-07-22T10:23:32.723Z,4.80
2018-07-22T10:26:01.351Z,4.43
2018-07-22T10:28:29.876Z,4.03
2018-07-22T10:30:58.466Z,3.90
2018-07-22T10:33:27.000Z,4.23
2018-07-22T10:35:55.605Z,3.10
2018-07-22T10:38:24.090Z,3.83
2018-07-22T10:40:52.350Z,4.60
2018-07-22T10:43:21.243Z,4.20
2018-07-22T10:45:50.854Z,3.90
2018-07-22T10:48:19.408Z,4.83
2018-07-22T10:50:49.575Z,3.80
2018-07-22T10:53:18.093Z,4.10
2018-07-22T10:55:46.594Z,4.50
2018-07-22T10:58:15.106Z,4.50
2018-07-22T11:00:44.821Z,4.17
2018-07-22T11:03:14.456Z,3.80
2018-07-22T11:05:42.656Z,4.50
2018-07-22T11:08:11.188Z,3.93
2018-07-22T11:10:39.717Z,4.33
2018-07-22T11:13:08.249Z,4.03
2018-07-22T11:15:36.504Z,5.27
2018-07-22T11:18:05.375Z,3.90
2018-07-22T11:20:33.901Z,3.47
2018-07-22T11:23:02.461Z,4.20
2018-07-22T11:25:31.097Z,3.60
2018-07-22T11:27:59.613Z,4.37
2018-07-22T11:30:28.169Z,3.60
2018-07-22T11:32:56.726Z,4.60
2018-07-22T11:35:25.264Z,4.40
2018-07-22T11:37:53.837Z,4.70
2018-07-22T11:40:22.367Z,3.97
2018-07-22T11:42:50.887Z,3.83
2018-07-22T11:45:19.414Z,3.70
2018-07-22T11:47:48.728Z,4.00
2018-07-22T11:50:17.252Z,4.03
2018-07-22T11:52:45.833Z,4.03
2018-07-22T11:55:14.399Z,4.37
2018-07-22T11:57:42.941Z,5.40
2018-07-22T12:00:11.506Z,4.10
2018-07-22T12:02:40.022Z,4.97
2018-07-22T12:05:08.561Z,3.80
2018-07-22T12:07:37.405Z,4.40
2018-07-22T12:10:06.041Z,4.40
2018-07-22T12:12:37.444Z,4.60
2018-07-22T12:15:06.073Z,5.60
2018-07-22T12:17:34.602Z,4.40
2018-07-22T12:20:04.018Z,5.10
2018-07-22T12:22:32.696Z,4.80
2018-07-22T12:25:01.221Z,5.20
2018-07-22T12:27:29.732Z,3.90
2018-07-22T12:29:58.644Z,5.00
2018-07-22T12:32:27.169Z,4.97
2018-07-22T12:34:55.685Z,5.00
2018-07-22T12:37:24.257Z,5.80
2018-07-22T12:39:53.379Z,5.27
2018-07-22T12:42:22.521Z,4.80
2018-07-22T12:44:53.091Z,5.40
2018-07-22T12:47:23.640Z,5.10
2018-07-22T12:49:52.479Z,5.00
2018-07-22T12:52:21.059Z,5.60
2018-07-22T12:54:49.568Z,4.20
2018-07-22T12:57:18.190Z,5.37
2018-07-22T12:59:46.763Z,4.77
2018-07-22T13:02:16.922Z,5.83
2018-07-22T13:04:45.481Z,4.03
2018-07-22T13:07:14.947Z,4.60
2018-07-22T13:09:43.660Z,4.97
2018-07-22T13:12:12.218Z,5.33
2018-07-22T13:14:40.984Z,5.33
2018-07-22T13:17:09.539Z,4.60
2018-07-22T13:19:38.104Z,4.67
2018-07-22T13:22:06.725Z,4.40
2018-07-22T13:24:35.275Z,4.53
2018-07-22T13:27:03.794Z,4.03
2018-07-22T13:29:32.344Z,4.30
2018-07-22T13:32:00.867Z,5.13
2018-07-22T13:34:29.102Z,3.60
2018-07-22T13:36:57.683Z,3.90
2018-07-22T13:39:26.190Z,4.70
2018-07-22T13:41:54.705Z,4.40
2018-07-22T13:44:23.292Z,5.07
2018-07-22T13:46:51.853Z,4.70
2018-07-22T13:49:20.376Z,4.60
2018-07-22T13:51:49.106Z,4.13
2018-07-22T13:54:17.644Z,4.53
2018-07-22T13:56:46.240Z,5.10
2018-07-22T13:59:14.812Z,4.50
2018-07-22T14:01:43.355Z,4.60
2018-07-22T14:04:11.869Z,5.70
2018-07-22T14:06:40.674Z,4.67
2018-07-22T14:09:11.095Z,4.23
2018-07-22T14:11:39.674Z,4.57
2018-07-22T14:14:08.958Z,5.27
2018-07-22T14:16:37.682Z,4.57
2018-07-22T14:19:06.760Z,4.03
2018-07-22T14:21:35.370Z,4.50
2018-07-22T14:24:03.965Z,5.33
2018-07-22T14:26:32.503Z,4.53
2018-07-22T14:29:01.249Z,4.50
2018-07-22T14:31:29.806Z,4.63
2018-07-22T14:33:58.300Z,4.53
2018-07-22T14:36:27.096Z,5.80
2018-07-22T14:38:55.682Z,4.80
2018-07-22T14:41:25.557Z,4.57
2018-07-22T14:43:54.938Z,4.97
2018-07-22T14:46:23.456Z,5.70
2018-07-22T14:48:52.044Z,6.00
2018-07-22T14:51:20.930Z,4.40
2018-07-22T14:53:49.476Z,4.50
2018-07-22T14:56:17.695Z,5.30
2018-07-22T14:58:46.259Z,5.97
2018-07-22T15:01:14.799Z,5.40
2018-07-22T15:03:44.055Z,5.10
2018-07-22T15:06:13.322Z,4.87
2018-07-22T15:08:42.203Z,4.80
2018-07-22T15:11:10.430Z,4.97
2018-07-22T15:13:39.136Z,4.57
2018-07-22T15:16:08.288Z,5.00
2018-07-22T15:18:36.987Z,4.57
2018-07-22T15:21:05.692Z,4.50
2018-07-22T15:23:34.759Z,4.20
2018-07-22T15:26:03.877Z,4.80
2018-07-22T15:28:32.557Z,4.10
2018-07-22T15:31:02.853Z,5.07
2018-07-22T15:33:31.404Z,3.97
2018-07-22T15:36:00.878Z,4.77
2018-07-22T15:38:29.380Z,4.90
2018-07-22T15:40:57.875Z,5.50
2018-07-22T15:43:26.405Z,5.13
2018-07-22T15:45:54.910Z,5.00
2018-07-22T15:48:23.447Z,5.50
2018-07-22T15:50:52.029Z,5.70
2018-07-22T15:53:20.588Z,5.93
2018-07-22T15:55:49.205Z,4.63
2018-07-22T15:58:18.056Z,5.80
2018-07-22T16:00:46.604Z,4.67
2018-07-22T16:03:15.258Z,6.60
2018-07-22T16:05:43.912Z,5.60
2018-07-22T16:08:12.450Z,5.33
2018-07-22T16:10:40.978Z,5.07
2018-07-22T16:13:09.517Z,5.20
2018-07-22T16:15:38.106Z,5.87
2018-07-22T16:18:06.982Z,5.30
2018-07-22T16:20:35.545Z,4.53
2018-07-22T16:23:03.781Z,5.07
2018-07-22T16:25:32.446Z,5.87
2018-07-22T16:28:01.010Z,4.80
2018-07-22T16:30:29.516Z,5.60
2018-07-22T16:32:58.027Z,5.13
2018-07-22T16:35:26.880Z,5.60
2018-07-22T16:37:55.505Z,6.13
2018-07-22T16:40:24.047Z,7.33
2018-07-22T16:42:52.868Z,7.70
2018-07-22T16:45:21.415Z,7.63
2018-07-22T16:47:50.931Z,8.20
2018-07-22T16:50:19.505Z,10.13
2018-07-22T16:52:48.040Z,8.67
2018-07-22T16:55:16.587Z,8.97
2018-07-22T16:57:45.166Z,10.00
2018-07-22T17:00:13.783Z,9.50
2018-07-22T17:02:42.310Z,9.53
2018-07-22T17:05:10.862Z,8.57
2018-07-22T17:07:39.511Z,9.63
2018-07-22T17:10:08.292Z,9.10
2018-07-22T17:12:36.929Z,8.67
2018-07-22T17:15:05.495Z,8.60
2018-07-22T17:17:34.050Z,8.20
2018-07-22T17:20:02.626Z,9.00
2018-07-22T17:22:31.182Z,8.77
2018-07-22T17:24:59.713Z,7.57
2018-07-22T17:27:28.325Z,8.17
2018-07-22T17:29:56.894Z,6.07
2018-07-22T17:32:25.890Z,7.27
2018-07-22T17:34:54.772Z,7.77
2018-07-22T17:37:23.296Z,6.70
2018-07-22T17:39:51.845Z,7.30
2018-07-22T17:42:20.384Z,6.53
2018-07-22T17:44:48.928Z,5.47
2018-07-22T17:47:17.473Z,4.90
2018-07-22T17:49:46.042Z,5.20
2018-07-22T17:52:14.563Z,5.07
2018-07-22T17:54:43.288Z,4.73
2018-07-22T17:57:11.896Z,4.80
2018-07-22T17:59:40.495Z,3.80
2018-07-22T18:02:09.083Z,3.53
2018-07-22T18:04:37.672Z,4.40
2018-07-22T18:07:06.234Z,3.10
2018-07-22T18:09:34.930Z,3.83
2018-07-22T18:12:03.595Z,3.87
2018-07-22T18:14:32.205Z,3.93
2018-07-22T18:17:00.771Z,3.80
2018-07-22T18:19:29.385Z,3.50
2018-07-22T18:21:58.867Z,5.07
2018-07-22T18:24:28.691Z,4.33
2018-07-22T18:26:58.097Z,3.90
2018-07-22T18:29:26.692Z,3.63
2018-07-22T18:31:55.371Z,3.30
2018-07-22T18:34:24.403Z,4.27
2018-07-22T18:36:52.921Z,3.50
2018-07-22T18:39:21.707Z,3.43
2018-07-22T18:41:50.062Z,3.40
2018-07-22T18:44:18.614Z,4.00
2018-07-22T18:46:47.140Z,2.80
2018-07-22T18:49:15.704Z,3.73
2018-07-22T18:51:44.241Z,3.30
2018-07-22T18:54:12.934Z,3.37
2018-07-22T18:56:41.549Z,2.90
2018-07-22T18:59:10.234Z,3.17
2018-07-22T19:01:38.772Z,2.70
2018-07-22T19:04:08.176Z,2.80
2018-07-22T19:06:36.716Z,3.23
2018-07-22T19:09:07.608Z,2.87
2018-07-22T19:11:36.184Z,3.50
2018-07-22T19:14:04.737Z,2.70
2018-07-22T19:16:33.283Z,2.93
2018-07-22T19:19:01.889Z,3.70
2018-07-22T19:21:30.406Z,3.00
2018-07-22T19:23:58.640Z,2.00
2018-07-22T19:26:27.406Z,2.80
2018-07-22T19:28:55.916Z,2.43
2018-07-22T19:31:24.484Z,3.00
2018-07-22T19:33:53.060Z,3.30
2018-07-22T19:36:21.584Z,2.87
2018-07-22T19:38:50.140Z,3.50
2018-07-22T19:41:18.666Z,3.10
2018-07-22T19:43:47.208Z,2.17
2018-07-22T19:46:15.756Z,2.83
2018-07-22T19:48:44.316Z,3.13
2018-07-22T19:51:12.834Z,3.27
2018-07-22T19:53:41.429Z,3.60
2018-07-22T19:56:11.980Z,3.30
2018-07-22T19:58:40.489Z,3.27
2018-07-22T20:01:09.037Z,2.67
2018-07-22T20:03:37.570Z,2.90
2018-07-22T20:06:05.816Z,3.97
2018-07-22T20:08:34.350Z,4.03
2018-07-22T21:28:42.667Z,5.43
2018-07-22T21:31:11.265Z,5.27
2018-07-22T21:33:39.776Z,6.03
2018-07-22T21:36:09.087Z,14.77
2018-07-22T21:38:37.595Z,7.13
2018-07-22T21:41:06.109Z,8.10
2018-07-22T21:43:35.547Z,5.97
2018-07-22T21:46:04.100Z,8.23
2018-07-22T21:48:32.599Z,9.50
2018-07-22T21:51:01.785Z,7.43
2018-07-22T21:53:30.292Z,7.47
2018-07-22T21:55:58.831Z,6.40
2018-07-22T21:58:27.403Z,6.00
2018-07-22T22:00:55.954Z,6.03
2018-07-22T22:03:24.467Z,5.60
2018-07-22T22:05:53.174Z,7.00
2018-07-22T22:08:21.701Z,6.80
2018-07-22T22:10:50.297Z,7.17
2018-07-22T22:13:18.966Z,7.20
2018-07-22T22:15:47.497Z,6.30
2018-07-22T22:18:16.967Z,7.63
2018-07-22T22:20:45.601Z,6.30
2018-07-22T22:23:14.175Z,7.50
2018-07-22T22:25:42.818Z,8.47
2018-07-22T22:28:11.354Z,7.60
2018-07-22T22:30:39.585Z,7.13
2018-07-22T22:33:08.121Z,7.20
2018-07-22T22:35:36.644Z,8.30
2018-07-22T22:38:05.166Z,6.93
2018-07-22T22:40:33.686Z,7.10
2018-07-22T22:43:02.210Z,7.50
2018-07-22T22:45:30.720Z,7.90
2018-07-22T22:47:59.212Z,7.00
2018-07-22T22:50:27.736Z,6.40
2018-07-22T22:52:56.282Z,7.00
2018-07-22T22:55:24.815Z,8.50
2018-07-22T22:58:04.542Z,6.73
2018-07-22T23:00:33.069Z,6.50
2018-07-22T23:03:01.574Z,8.00
2018-07-22T23:05:30.097Z,6.70
2018-07-22T23:07:58.622Z,7.10
2018-07-22T23:10:27.117Z,7.83
2018-07-22T23:12:55.659Z,9.10
2018-07-22T23:15:24.192Z,9.30
2018-07-22T23:17:53.450Z,8.80
2018-07-22T23:20:21.992Z,8.73
2018-07-22T23:22:50.512Z,8.23
2018-07-22T23:25:19.137Z,9.33
2018-07-22T23:27:47.691Z,9.90
2018-07-22T23:30:16.404Z,8.20
2018-07-22T23:32:44.955Z,8.97
2018-07-22T23:35:13.504Z,9.50
2018-07-22T23:37:42.033Z,9.37
2018-07-22T23:40:10.529Z,9.40
2018-07-22T23:42:39.060Z,9.83
2018-07-22T23:45:07.599Z,10.13
2018-07-22T23:47:36.119Z,10.37
2018-07-22T23:50:04.792Z,10.40
2018-07-22T23:52:33.323Z,11.30
2018-07-22T23:55:01.840Z,11.30
2018-07-22T23:57:30.408Z,10.83
2018-07-22T23:59:58.919Z,12.03
